Butte, Nebraska
Current Conditions -  °F | °C
As of 3:15 AM on Thursday 18 Dec 2014 (Local Time) from KONL Reporting Station
Overcast Overcast  
Wind Chill: 21°   Ceiling: 1500
Heat Index: 21°   Visibility: 10mi
Dew Point: 20°   Wind: 0mph
Humidity: 95%   Direction: NA
Pressure: 30.16"   Gusts: NA
Location:  42.91°N, 98.85°W
Report Text: KONL 180915Z AUTO 00000KT 10SM BKN015 OVC022 M06/M07 A3016 RMK AO2 T10611068
Loading
Personal Weather Stations






























Interactive Weather Map New forecast layout! Learn more

10-Day Weather Forecast

Advertisements
Track Severe Weather on mobile